Time;durP1;ratioP1;P1;durP2;ratioP2;P2;SDS_P1;SDS_P2;PMS_P1;PMS_P2;Temp;Humidity;BMP_temperature;BMP_pressure;BME280_temperature;BME280_humidity;BME280_pressure;Samples;Min_cycle;Max_cycle;Signal;HPM_P1;HPM_P2
2021/01/15 00:02:17;;;;;;;5.50;4.63;;;0.90;99.90;;;;;;4835847;29;20786;-78
2021/01/15 00:04:42;;;;;;;5.78;4.75;;;0.90;99.90;;;;;;4850109;29;20417;-78
2021/01/15 00:07:08;;;;;;;5.13;3.80;;;0.80;99.90;;;;;;4838890;28;20943;-79
2021/01/15 00:09:34;;;;;;;4.95;4.47;;;0.90;99.90;;;;;;4838680;28;20763;-82
2021/01/15 00:12:00;;;;;;;6.18;4.35;;;0.90;99.90;;;;;;4889879;29;20431;-80
2021/01/15 00:14:26;;;;;;;4.30;3.90;;;0.80;99.90;;;;;;4843977;28;20411;-81
2021/01/15 00:16:53;;;;;;;5.40;4.50;;;0.80;99.90;;;;;;4844731;29;20412;-80
2021/01/15 00:19:19;;;;;;;4.88;4.03;;;0.80;99.90;;;;;;4824317;28;20413;-83
2021/01/15 00:21:50;;;;;;;5.37;4.17;;;0.90;99.90;;;;;;4846902;28;20413;-83
2021/01/15 00:24:17;;;;;;;5.03;4.53;;;0.90;99.90;;;;;;4847127;28;20416;-86
2021/01/15 00:26:43;;;;;;;4.93;4.35;;;0.90;99.90;;;;;;4849837;28;20408;-79
2021/01/15 00:29:10;;;;;;;5.65;4.35;;;0.90;99.90;;;;;;4848602;29;20419;-78
2021/01/15 00:31:37;;;;;;;5.40;4.43;;;0.90;99.90;;;;;;4847836;28;20435;-80
2021/01/15 00:34:04;;;;;;;5.05;4.30;;;0.90;99.90;;;;;;4849444;28;20495;-77
2021/01/15 00:36:29;;;;;;;4.57;4.00;;;1.00;99.90;;;;;;4847783;28;21103;-78
2021/01/15 00:38:55;;;;;;;4.82;4.10;;;1.00;99.90;;;;;;4846009;29;20443;-84
2021/01/15 00:41:21;;;;;;;4.63;4.22;;;1.00;99.90;;;;;;4813719;28;20445;-78
2021/01/15 00:43:47;;;;;;;5.63;4.55;;;0.90;99.90;;;;;;4843280;28;20499;-79
2021/01/15 00:46:27;;;;;;;4.60;4.20;;;0.90;99.90;;;;;;4849376;28;20942;-79
2021/01/15 00:48:54;;;;;;;5.30;4.60;;;0.90;99.90;;;;;;4843334;29;20413;-79
2021/01/15 00:51:20;;;;;;;4.60;4.05;;;0.90;99.90;;;;;;4832967;28;20437;-80
2021/01/15 00:53:46;;;;;;;4.97;4.32;;;0.80;99.90;;;;;;4835502;29;20408;-84
2021/01/15 00:56:16;;;;;;;4.60;4.20;;;0.80;99.90;;;;;;4861394;28;20436;-79
2021/01/15 00:58:42;;;;;;;4.75;4.15;;;0.80;99.90;;;;;;4807509;29;20917;-78
2021/01/15 01:01:12;;;;;;;4.57;4.18;;;0.80;99.90;;;;;;4846665;28;20419;-80
2021/01/15 01:03:45;;;;;;;4.82;4.38;;;0.90;99.90;;;;;;4834923;28;20983;-84
2021/01/15 01:06:15;;;;;;;4.75;4.22;;;0.90;99.90;;;;;;4837773;28;20427;-79
2021/01/15 01:08:41;;;;;;;5.65;4.57;;;0.90;99.90;;;;;;4838196;28;20423;-79
2021/01/15 01:11:33;;;;;;;5.68;4.53;;;0.80;99.90;;;;;;4886054;28;20524;-80
2021/01/15 01:13:59;;;;;;;5.30;4.38;;;0.80;99.90;;;;;;4852615;28;20416;-80
2021/01/15 01:16:25;;;;;;;6.00;4.40;;;0.80;99.90;;;;;;4889903;28;20428;-85
2021/01/15 01:18:51;;;;;;;4.90;4.32;;;0.80;99.90;;;;;;4833746;28;20432;-85
2021/01/15 01:21:17;;;;;;;4.78;4.38;;;0.90;99.90;;;;;;4851380;29;20420;-79
2021/01/15 01:23:42;;;;;;;4.45;4.05;;;0.90;99.90;;;;;;4854183;28;20546;-80
2021/01/15 01:26:08;;;;;;;4.63;4.00;;;0.90;99.90;;;;;;4923426;28;20425;-79
2021/01/15 01:28:34;;;;;;;5.30;4.65;;;0.90;99.90;;;;;;4957871;28;20423;-77
2021/01/15 01:31:00;;;;;;;5.22;4.60;;;1.00;99.90;;;;;;4905539;28;20429;-85
2021/01/15 01:33:26;;;;;;;4.75;3.72;;;0.90;99.90;;;;;;4841953;28;20401;-82
2021/01/15 01:35:51;;;;;;;5.32;4.15;;;0.80;99.90;;;;;;4859060;28;20444;-80
2021/01/15 01:38:17;;;;;;;5.07;4.33;;;0.90;99.90;;;;;;4876575;29;20390;-80
2021/01/15 01:40:44;;;;;;;4.30;3.90;;;0.90;99.90;;;;;;4858512;28;20432;-83
2021/01/15 01:43:09;;;;;;;4.80;4.30;;;0.90;99.90;;;;;;4848197;28;20408;-81
2021/01/15 01:45:35;;;;;;;6.40;4.90;;;1.00;99.90;;;;;;4839469;28;20471;-81
2021/01/15 01:48:01;;;;;;;4.88;4.22;;;0.90;99.90;;;;;;4843579;28;20851;-78
2021/01/15 01:50:27;;;;;;;3.92;3.63;;;0.90;99.90;;;;;;4826878;29;20430;-80
2021/01/15 01:52:53;;;;;;;4.57;4.15;;;0.90;99.90;;;;;;4844525;29;20409;-81
2021/01/15 01:55:19;;;;;;;4.87;4.37;;;0.90;99.90;;;;;;4847633;29;20465;-80
2021/01/15 01:57:45;;;;;;;4.50;4.10;;;1.00;99.90;;;;;;4855102;28;20405;-81
2021/01/15 02:00:11;;;;;;;4.80;4.13;;;1.00;99.90;;;;;;4855637;29;20414;-82
2021/01/15 02:02:37;;;;;;;5.07;3.88;;;0.90;99.90;;;;;;4860759;28;20429;-77
2021/01/15 02:05:04;;;;;;;4.97;4.40;;;1.00;99.90;;;;;;4852408;28;20448;-82
2021/01/15 02:07:30;;;;;;;6.07;4.80;;;1.00;99.90;;;;;;4847544;28;20476;-79
2021/01/15 02:10:08;;;;;;;6.03;4.45;;;0.90;99.90;;;;;;4845882;28;20425;-81
2021/01/15 02:12:52;;;;;;;5.35;4.50;;;0.90;99.90;;;;;;4879958;28;20417;-81
2021/01/15 02:15:37;;;;;;;4.88;4.40;;;0.90;99.90;;;;;;4843060;28;20432;-79
2021/01/15 02:18:10;;;;;;;4.53;4.13;;;0.90;99.90;;;;;;4859520;28;20436;-77
2021/01/15 02:21:02;;;;;;;4.82;4.15;;;0.90;99.90;;;;;;4832542;28;20425;-86
2021/01/15 02:23:41;;;;;;;4.63;4.18;;;1.00;99.90;;;;;;4862489;29;20437;-79
2021/01/15 02:26:15;;;;;;;7.27;4.33;;;0.90;99.90;;;;;;4828936;29;20905;-79
2021/01/15 02:29:07;;;;;;;4.60;4.20;;;0.90;99.90;;;;;;4878543;28;20440;-81
2021/01/15 02:31:45;;;;;;;5.05;4.15;;;0.90;99.90;;;;;;4894485;28;20420;-85
2021/01/15 02:34:35;;;;;;;5.97;4.60;;;0.80;99.90;;;;;;4917706;28;20404;-81
2021/01/15 02:37:03;;;;;;;7.68;4.78;;;0.80;99.90;;;;;;4915956;29;21057;-79
2021/01/15 02:39:46;;;;;;;6.70;5.18;;;0.80;99.90;;;;;;4930618;28;20428;-78
2021/01/15 02:42:11;;;;;;;8.05;5.20;;;0.90;99.90;;;;;;4935971;28;20501;-83
2021/01/15 02:44:38;;;;;;;6.00;5.13;;;0.90;99.90;;;;;;4859964;28;20702;-87
2021/01/15 02:47:06;;;;;;;8.05;5.40;;;0.80;99.90;;;;;;4839052;29;20409;-84
2021/01/15 02:49:32;;;;;;;7.38;6.07;;;0.80;99.90;;;;;;4945854;28;20436;-82
2021/01/15 02:51:58;;;;;;;5.88;5.00;;;0.90;99.90;;;;;;4941294;28;20424;-80
2021/01/15 02:54:23;;;;;;;7.15;5.65;;;0.90;99.90;;;;;;4942948;29;20401;-79
2021/01/15 02:56:49;;;;;;;6.47;5.33;;;0.90;99.90;;;;;;4918369;28;22515;-81
2021/01/15 02:59:16;;;;;;;8.20;5.57;;;0.90;99.90;;;;;;4932684;29;20434;-78
2021/01/15 03:02:00;;;;;;;7.28;5.25;;;1.00;99.90;;;;;;4882208;28;20794;-81
2021/01/15 03:04:50;;;;;;;8.13;5.70;;;0.80;99.90;;;;;;4921558;28;20832;-83
2021/01/15 03:07:16;;;;;;;9.93;5.55;;;0.80;99.90;;;;;;4914233;29;20432;-82
2021/01/15 03:09:44;;;;;;;9.07;5.88;;;0.80;99.90;;;;;;4841926;28;20524;-81
2021/01/15 03:12:10;;;;;;;10.48;5.95;;;0.80;99.90;;;;;;4842398;29;20518;-80
2021/01/15 03:14:36;;;;;;;7.22;5.28;;;0.80;99.90;;;;;;4832389;29;20482;-83
2021/01/15 03:17:05;;;;;;;8.02;5.13;;;0.80;99.90;;;;;;4862161;28;21104;-84
2021/01/15 03:19:31;;;;;;;8.27;5.60;;;0.90;99.90;;;;;;4859756;29;20413;-86
2021/01/15 03:21:56;;;;;;;7.13;5.72;;;0.80;99.90;;;;;;4848068;28;20408;-81
2021/01/15 03:24:28;;;;;;;7.90;5.72;;;0.80;99.90;;;;;;4881560;29;20401;-83
2021/01/15 03:26:54;;;;;;;7.95;5.70;;;0.80;99.90;;;;;;4959516;28;20407;-81
2021/01/15 03:29:19;;;;;;;8.85;5.28;;;0.80;99.90;;;;;;4909242;29;20401;-79
2021/01/15 03:31:45;;;;;;;6.85;5.78;;;0.80;99.90;;;;;;4846676;29;20433;-80
2021/01/15 03:34:11;;;;;;;8.85;5.45;;;0.80;99.90;;;;;;4849828;28;20429;-85
2021/01/15 03:36:37;;;;;;;9.17;5.57;;;0.80;99.90;;;;;;4844115;29;20745;-85
2021/01/15 03:39:02;;;;;;;7.32;5.18;;;0.80;99.90;;;;;;4834455;28;20499;-88
2021/01/15 03:41:28;;;;;;;6.80;4.78;;;0.80;99.90;;;;;;4868341;29;20410;-83
2021/01/15 03:43:54;;;;;;;8.67;5.43;;;0.80;99.90;;;;;;4819425;28;20834;-83
2021/01/15 03:46:19;;;;;;;6.87;5.57;;;0.80;99.90;;;;;;4826802;28;20417;-78
2021/01/15 03:48:46;;;;;;;7.10;5.55;;;0.80;99.90;;;;;;4839850;28;20417;-79
2021/01/15 03:51:11;;;;;;;11.63;7.70;;;0.80;99.90;;;;;;4839917;28;21147;-81
2021/01/15 03:53:37;;;;;;;8.00;6.20;;;0.80;99.90;;;;;;4840349;29;20401;-80
2021/01/15 03:56:03;;;;;;;8.10;5.33;;;0.80;99.90;;;;;;4835161;28;20409;-80
2021/01/15 03:58:29;;;;;;;6.20;5.07;;;0.80;99.90;;;;;;4837637;29;20498;-85
2021/01/15 04:00:54;;;;;;;7.82;5.65;;;0.80;99.90;;;;;;4850194;28;20410;-81
2021/01/15 04:03:20;;;;;;;6.15;5.00;;;0.80;99.90;;;;;;4859841;28;20432;-78
2021/01/15 04:05:45;;;;;;;5.90;4.70;;;0.80;99.90;;;;;;4830207;29;20485;-84
2021/01/15 04:08:11;;;;;;;6.40;5.05;;;0.90;99.90;;;;;;4912019;29;20398;-78
2021/01/15 04:10:37;;;;;;;7.50;5.00;;;0.90;99.90;;;;;;4851453;29;20489;-79
2021/01/15 04:13:04;;;;;;;5.87;4.57;;;0.90;99.90;;;;;;4900244;28;20420;-78
2021/01/15 04:15:30;;;;;;;5.57;4.85;;;0.90;99.90;;;;;;4923598;28;20398;-78
2021/01/15 04:18:00;;;;;;;6.63;4.90;;;0.80;99.90;;;;;;4905403;28;20415;-78
2021/01/15 04:20:26;;;;;;;6.78;5.07;;;0.80;99.90;;;;;;4925226;28;20415;-81
2021/01/15 04:22:52;;;;;;;6.28;4.63;;;0.80;99.90;;;;;;4846875;28;20603;-82
2021/01/15 04:25:17;;;;;;;4.80;4.13;;;0.80;99.90;;;;;;4840860;28;20601;-89
2021/01/15 04:27:43;;;;;;;7.75;4.95;;;0.80;99.90;;;;;;4848358;28;20899;-84
2021/01/15 04:30:10;;;;;;;5.45;4.53;;;0.80;99.90;;;;;;4860812;28;20398;-82
2021/01/15 04:33:14;;;;;;;5.78;4.38;;;0.70;99.90;;;;;;4894272;28;20414;-78
2021/01/15 04:35:39;;;;;;;4.80;4.30;;;0.80;99.90;;;;;;4932949;28;20450;-79
2021/01/15 04:38:05;;;;;;;7.80;4.32;;;0.80;99.90;;;;;;4921192;28;20416;-77
2021/01/15 04:40:30;;;;;;;5.63;4.23;;;0.90;99.90;;;;;;4920049;28;20448;-78
2021/01/15 04:43:00;;;;;;;4.13;3.73;;;0.80;99.90;;;;;;4916906;28;21082;-83
2021/01/15 04:45:25;;;;;;;5.73;4.30;;;0.80;99.90;;;;;;4896037;28;20426;-78
2021/01/15 04:47:51;;;;;;;6.60;4.10;;;0.80;99.90;;;;;;4842615;29;20418;-82
2021/01/15 04:50:17;;;;;;;4.95;4.18;;;0.80;99.90;;;;;;4844738;29;20980;-81
2021/01/15 04:52:49;;;;;;;5.43;3.53;;;0.80;99.90;;;;;;4846312;28;20424;-83
2021/01/15 04:55:20;;;;;;;4.78;4.18;;;0.80;99.90;;;;;;4935950;28;20419;-80
2021/01/15 04:57:55;;;;;;;7.28;4.50;;;0.70;99.90;;;;;;4956278;28;20404;-79
2021/01/15 05:00:25;;;;;;;5.82;4.28;;;0.70;99.90;;;;;;4912787;28;20564;-79
2021/01/15 05:02:51;;;;;;;4.63;4.20;;;0.70;99.90;;;;;;4862423;28;20396;-79
2021/01/15 05:05:21;;;;;;;6.97;4.97;;;0.70;99.90;;;;;;4923103;28;20408;-79
2021/01/15 05:08:08;;;;;;;5.20;4.70;;;0.70;99.90;;;;;;4925923;28;20435;-84
2021/01/15 05:10:41;;;;;;;5.90;5.00;;;0.70;99.90;;;;;;4950258;28;20406;-84
2021/01/15 05:13:08;;;;;;;6.75;4.90;;;0.70;99.90;;;;;;4912694;28;20397;-83
2021/01/15 05:15:34;;;;;;;9.43;5.57;;;0.70;99.90;;;;;;4924936;28;20632;-80
2021/01/15 05:18:03;;;;;;;6.30;5.70;;;0.70;99.90;;;;;;4859319;28;20937;-82
2021/01/15 05:20:29;;;;;;;6.85;5.25;;;0.70;99.90;;;;;;4835379;29;20394;-83
2021/01/15 05:22:57;;;;;;;5.57;4.95;;;0.70;99.90;;;;;;4863123;28;20905;-83
2021/01/15 05:25:23;;;;;;;7.38;5.45;;;0.70;99.90;;;;;;4879916;28;20458;-83
2021/01/15 05:27:48;;;;;;;5.78;5.10;;;0.70;99.90;;;;;;4845325;28;20405;-80
2021/01/15 05:30:17;;;;;;;7.70;5.97;;;0.70;99.90;;;;;;4851536;28;20906;-78
2021/01/15 05:32:44;;;;;;;6.00;5.00;;;0.70;99.90;;;;;;4858122;28;20542;-79
2021/01/15 05:35:10;;;;;;;6.88;5.47;;;0.80;99.90;;;;;;4863676;28;20448;-79
2021/01/15 05:37:36;;;;;;;8.43;5.63;;;0.70;99.90;;;;;;4829148;29;20419;-75
2021/01/15 05:40:02;;;;;;;6.28;5.43;;;0.70;99.90;;;;;;4842144;28;20933;-75
2021/01/15 05:42:28;;;;;;;5.78;5.10;;;0.70;99.90;;;;;;4845993;29;20488;-78
2021/01/15 05:45:11;;;;;;;6.82;5.00;;;0.80;99.90;;;;;;4831913;29;20493;-78
2021/01/15 05:47:44;;;;;;;7.40;5.23;;;0.80;99.90;;;;;;4937091;28;21268;-76
2021/01/15 05:50:11;;;;;;;5.78;5.15;;;0.80;99.90;;;;;;4934156;29;20469;-77
2021/01/15 05:52:37;;;;;;;5.78;4.80;;;0.80;99.90;;;;;;4954845;28;20419;-76
2021/01/15 05:55:12;;;;;;;7.68;5.35;;;0.80;99.90;;;;;;4904188;28;20495;-75
2021/01/15 05:57:38;;;;;;;5.90;4.35;;;0.80;99.90;;;;;;4933640;29;20910;-80
2021/01/15 06:00:05;;;;;;;8.15;5.13;;;0.80;99.90;;;;;;4960421;28;20442;-80
2021/01/15 06:02:31;;;;;;;5.38;4.88;;;0.80;99.90;;;;;;4855740;28;20411;-76
2021/01/15 06:04:57;;;;;;;5.00;4.50;;;0.80;99.90;;;;;;4826086;28;20425;-80
2021/01/15 06:07:23;;;;;;;5.40;4.63;;;0.80;99.90;;;;;;4857075;28;20406;-75
2021/01/15 06:09:49;;;;;;;5.53;4.40;;;0.70;99.90;;;;;;4840534;28;20413;-75
2021/01/15 06:12:16;;;;;;;5.25;4.60;;;0.80;99.90;;;;;;4908747;28;20926;-75
2021/01/15 06:14:57;;;;;;;4.68;4.28;;;0.80;99.90;;;;;;4927579;28;20408;-77
2021/01/15 06:17:24;;;;;;;5.53;4.37;;;0.80;99.90;;;;;;4865080;28;20492;-76
2021/01/15 06:19:57;;;;;;;4.70;4.00;;;0.70;99.90;;;;;;4827952;28;20963;-79
2021/01/15 06:22:36;;;;;;;4.78;3.90;;;0.70;99.90;;;;;;4838820;29;20486;-76
2021/01/15 06:25:20;;;;;;;4.80;4.10;;;0.70;99.90;;;;;;4870879;28;20415;-73
2021/01/15 06:27:46;;;;;;;5.15;4.18;;;0.70;99.90;;;;;;4853758;28;20887;-79
2021/01/15 06:30:13;;;;;;;5.35;4.28;;;0.70;99.90;;;;;;4915253;28;20397;-75
2021/01/15 06:32:40;;;;;;;3.83;3.35;;;0.70;99.90;;;;;;4858966;28;20498;-75
2021/01/15 06:35:07;;;;;;;3.97;3.55;;;0.70;99.90;;;;;;4831354;29;20466;-75
2021/01/15 06:37:34;;;;;;;4.25;3.85;;;0.80;99.90;;;;;;4841091;29;20411;-77
2021/01/15 06:40:02;;;;;;;4.77;3.63;;;0.80;99.90;;;;;;4843807;28;20438;-75
2021/01/15 06:42:30;;;;;;;5.20;3.60;;;0.90;99.90;;;;;;4848367;29;20963;-79
2021/01/15 06:44:57;;;;;;;4.43;3.85;;;0.70;99.90;;;;;;4852719;29;20418;-79
2021/01/15 06:47:26;;;;;;;3.67;3.10;;;0.70;99.90;;;;;;4844295;29;20420;-75
2021/01/15 06:49:52;;;;;;;4.53;4.00;;;0.70;99.90;;;;;;4837588;28;20407;-75
2021/01/15 06:52:25;;;;;;;4.80;3.88;;;0.70;99.90;;;;;;4840297;28;20424;-75
2021/01/15 06:54:50;;;;;;;3.70;3.30;;;0.70;99.90;;;;;;4878672;28;21095;-76
2021/01/15 06:57:16;;;;;;;3.53;3.22;;;0.60;99.90;;;;;;4839352;29;20405;-75
2021/01/15 06:59:51;;;;;;;3.70;3.20;;;0.70;99.90;;;;;;4840740;28;20484;-77
2021/01/15 07:02:47;;;;;;;4.13;3.53;;;0.70;99.90;;;;;;4869190;28;20413;-76
2021/01/15 07:05:13;;;;;;;4.47;4.07;;;0.70;99.90;;;;;;4854502;28;20409;-77
2021/01/15 07:07:38;;;;;;;5.75;4.30;;;0.70;99.90;;;;;;4822595;28;20401;-77
2021/01/15 07:10:05;;;;;;;4.57;3.73;;;0.70;99.90;;;;;;4836562;29;20501;-76
2021/01/15 07:12:40;;;;;;;4.60;3.90;;;0.60;99.90;;;;;;4881559;28;20434;-76
2021/01/15 07:15:11;;;;;;;4.05;3.65;;;0.60;99.90;;;;;;4823012;28;20961;-80
2021/01/15 07:17:37;;;;;;;4.72;3.92;;;0.60;99.90;;;;;;4844721;28;20401;-74
2021/01/15 07:20:08;;;;;;;4.63;3.70;;;0.60;99.90;;;;;;4864275;28;20482;-75
2021/01/15 07:22:42;;;;;;;4.07;3.63;;;0.60;99.90;;;;;;4868772;29;20415;-75
2021/01/15 07:25:09;;;;;;;3.80;3.47;;;0.60;99.90;;;;;;4863477;28;21077;-77
2021/01/15 07:27:34;;;;;;;4.43;4.03;;;0.60;99.90;;;;;;4856031;28;20405;-76
2021/01/15 07:30:00;;;;;;;5.45;4.15;;;0.60;99.90;;;;;;4826417;29;20989;-75
2021/01/15 07:32:27;;;;;;;5.83;4.20;;;0.60;99.90;;;;;;4852628;28;20421;-76
2021/01/15 07:35:00;;;;;;;4.57;3.92;;;0.60;99.90;;;;;;4828973;29;20908;-76
2021/01/15 07:37:29;;;;;;;4.72;3.88;;;0.60;99.90;;;;;;4887853;28;21091;-75
2021/01/15 07:40:05;;;;;;;4.17;3.70;;;0.60;99.90;;;;;;4826235;28;20993;-80
2021/01/15 07:42:44;;;;;;;5.37;4.17;;;0.60;99.90;;;;;;4944635;28;20486;-75
2021/01/15 07:45:33;;;;;;;4.30;3.90;;;0.50;99.90;;;;;;4899279;29;20414;-76
2021/01/15 07:48:01;;;;;;;5.07;4.03;;;0.50;99.90;;;;;;4929231;28;20902;-79
2021/01/15 07:50:27;;;;;;;5.80;3.95;;;0.60;99.90;;;;;;4933481;28;20757;-76
2021/01/15 07:53:04;;;;;;;5.57;4.50;;;0.60;99.90;;;;;;4950388;28;20415;-78
2021/01/15 07:55:43;;;;;;;5.53;4.30;;;0.60;99.90;;;;;;4878366;28;20412;-75
2021/01/15 07:58:09;;;;;;;5.03;4.28;;;0.60;99.90;;;;;;4895022;28;20917;-76
2021/01/15 08:00:35;;;;;;;5.03;4.50;;;0.60;99.90;;;;;;4909427;29;20416;-78
2021/01/15 08:03:01;;;;;;;5.07;4.57;;;0.60;99.90;;;;;;4940109;28;20784;-78
2021/01/15 08:05:27;;;;;;;4.93;4.38;;;0.50;99.90;;;;;;4956369;28;20479;-77
2021/01/15 08:08:03;;;;;;;5.85;4.90;;;0.50;99.90;;;;;;4945350;28;20539;-77
2021/01/15 08:10:29;;;;;;;6.82;5.00;;;0.50;99.90;;;;;;4942120;28;20502;-73
2021/01/15 08:12:55;;;;;;;5.43;4.50;;;0.50;99.90;;;;;;4949095;28;20558;-80
2021/01/15 08:15:30;;;;;;;5.00;4.43;;;0.50;99.90;;;;;;4942139;28;20895;-79
2021/01/15 08:18:06;;;;;;;4.80;4.30;;;0.50;99.90;;;;;;4876388;29;20420;-81
2021/01/15 08:20:34;;;;;;;4.93;4.35;;;0.50;99.90;;;;;;4940423;28;20416;-81
2021/01/15 08:23:00;;;;;;;5.00;4.22;;;0.50;99.90;;;;;;4902127;29;20405;-76
2021/01/15 08:25:29;;;;;;;4.60;4.17;;;0.50;99.90;;;;;;4957824;28;20770;-78
2021/01/15 08:27:58;;;;;;;4.50;4.10;;;0.60;99.90;;;;;;4926459;28;20408;-82
2021/01/15 08:30:24;;;;;;;6.70;4.82;;;0.60;99.90;;;;;;4908521;29;20906;-79
2021/01/15 08:32:50;;;;;;;7.07;5.30;;;0.60;99.90;;;;;;4843177;28;20425;-78
2021/01/15 08:35:26;;;;;;;6.35;4.90;;;0.70;99.90;;;;;;4842819;29;20420;-81
2021/01/15 08:37:58;;;;;;;5.47;4.97;;;0.70;99.90;;;;;;4918333;28;20495;-78
2021/01/15 08:40:26;;;;;;;6.00;4.85;;;0.90;99.90;;;;;;4845145;28;20505;-77
2021/01/15 08:42:53;;;;;;;6.18;4.82;;;0.80;99.90;;;;;;4841092;29;20503;-84
2021/01/15 08:45:27;;;;;;;6.25;5.13;;;0.60;99.90;;;;;;4835530;29;20410;-83
2021/01/15 08:47:53;;;;;;;6.70;5.00;;;0.60;99.90;;;;;;4853165;29;20414;-81
2021/01/15 08:50:19;;;;;;;5.28;4.45;;;0.50;99.90;;;;;;4923910;29;21156;-78
2021/01/15 08:52:45;;;;;;;6.87;5.17;;;0.50;99.90;;;;;;4825352;29;20425;-82
2021/01/15 08:55:11;;;;;;;6.38;4.93;;;0.40;99.90;;;;;;4881128;29;20506;-83
2021/01/15 08:57:37;;;;;;;7.70;4.72;;;0.40;99.90;;;;;;4826017;28;20499;-80
2021/01/15 09:00:13;;;;;;;5.70;4.60;;;0.50;99.90;;;;;;4841034;28;20408;-80
2021/01/15 09:02:40;;;;;;;5.13;4.47;;;0.40;99.90;;;;;;4863222;29;20403;-81
2021/01/15 09:05:10;;;;;;;5.75;4.63;;;0.50;99.90;;;;;;4819108;28;20953;-81
2021/01/15 09:07:43;;;;;;;6.07;4.97;;;0.60;99.90;;;;;;4814286;28;20455;-79
2021/01/15 09:10:10;;;;;;;7.07;5.18;;;0.60;99.90;;;;;;4839720;28;20409;-85
2021/01/15 09:12:39;;;;;;;6.25;5.10;;;0.50;99.90;;;;;;4819880;29;20417;-83
2021/01/15 09:15:06;;;;;;;4.97;4.47;;;0.60;99.90;;;;;;4840106;29;20452;-80
2021/01/15 09:17:32;;;;;;;5.30;4.53;;;0.60;99.90;;;;;;4834256;29;20407;-85
2021/01/15 09:19:57;;;;;;;7.72;4.47;;;0.60;99.90;;;;;;4824832;29;20421;-80
2021/01/15 09:22:26;;;;;;;5.18;4.65;;;0.60;99.90;;;;;;4849708;28;20397;-79
2021/01/15 09:24:52;;;;;;;5.82;5.07;;;0.50;99.90;;;;;;4847849;29;20483;-78
2021/01/15 09:27:18;;;;;;;5.30;4.80;;;0.40;99.90;;;;;;4908061;28;20417;-79
2021/01/15 09:29:43;;;;;;;5.27;4.37;;;0.30;99.90;;;;;;4819380;28;20407;-77
2021/01/15 09:32:09;;;;;;;4.75;4.25;;;0.50;99.90;;;;;;4842017;29;20434;-82
2021/01/15 09:34:35;;;;;;;4.80;4.20;;;0.70;99.90;;;;;;4863650;29;20405;-85
2021/01/15 09:37:01;;;;;;;4.63;4.17;;;0.80;99.90;;;;;;4840593;28;20405;-77
2021/01/15 09:39:27;;;;;;;4.97;4.07;;;0.70;99.90;;;;;;4858722;28;20943;-81
2021/01/15 09:41:57;;;;;;;4.63;3.87;;;0.80;99.90;;;;;;4851924;28;20407;-78
2021/01/15 09:44:23;;;;;;;4.20;3.72;;;0.70;99.90;;;;;;4877041;28;20917;-82
2021/01/15 09:46:50;;;;;;;5.47;4.40;;;0.60;99.90;;;;;;4881977;29;20417;-80
2021/01/15 09:49:16;;;;;;;4.20;3.80;;;0.40;99.90;;;;;;4814125;28;20439;-80
2021/01/15 09:51:42;;;;;;;4.73;3.97;;;0.50;99.90;;;;;;4846958;29;20451;-88
2021/01/15 09:54:08;;;;;;;4.80;3.67;;;0.50;99.90;;;;;;4838025;29;20420;-82
2021/01/15 09:56:42;;;;;;;5.70;4.28;;;0.60;99.90;;;;;;4842929;29;20424;-84
2021/01/15 09:59:10;;;;;;;4.85;4.13;;;0.80;99.90;;;;;;4828311;28;20428;-76
2021/01/15 10:01:35;;;;;;;5.47;4.40;;;0.60;99.90;;;;;;4859857;28;20400;-80
2021/01/15 10:04:01;;;;;;;4.25;3.75;;;0.50;99.90;;;;;;4874096;28;20778;-81
2021/01/15 10:06:28;;;;;;;4.45;3.70;;;0.60;99.90;;;;;;4850012;29;20481;-79
2021/01/15 10:08:57;;;;;;;4.28;3.72;;;0.60;99.90;;;;;;4843134;28;20416;-80
2021/01/15 10:11:27;;;;;;;4.95;4.05;;;0.70;99.90;;;;;;4841730;28;20417;-81
2021/01/15 10:13:55;;;;;;;4.60;3.95;;;0.50;99.90;;;;;;4857256;28;20506;-81
2021/01/15 10:16:21;;;;;;;5.17;3.97;;;0.60;99.90;;;;;;4827807;29;20858;-80
2021/01/15 10:18:47;;;;;;;4.97;4.10;;;0.60;99.90;;;;;;4841614;28;20832;-76
2021/01/15 10:21:12;;;;;;;5.20;4.10;;;0.70;99.90;;;;;;4846956;28;20487;-75
2021/01/15 10:23:39;;;;;;;5.82;4.20;;;0.60;99.90;;;;;;4852571;29;20425;-78
2021/01/15 10:26:05;;;;;;;4.63;4.13;;;0.50;99.90;;;;;;4834186;28;20413;-81
2021/01/15 10:28:31;;;;;;;4.38;3.72;;;0.60;99.90;;;;;;4854226;29;20473;-78
2021/01/15 10:30:57;;;;;;;4.55;3.90;;;0.70;99.90;;;;;;4853200;29;20966;-79
2021/01/15 10:33:22;;;;;;;4.88;3.85;;;0.80;99.90;;;;;;4848530;28;20846;-81
2021/01/15 10:35:51;;;;;;;4.32;3.70;;;0.90;99.90;;;;;;4839595;28;20417;-81
2021/01/15 10:38:17;;;;;;;3.70;3.30;;;1.00;99.90;;;;;;4849948;28;20397;-83
2021/01/15 10:40:44;;;;;;;3.80;3.07;;;1.00;99.90;;;;;;4849712;29;20912;-76
2021/01/15 10:43:09;;;;;;;3.10;2.80;;;0.90;99.90;;;;;;4851611;28;20408;-82
2021/01/15 10:45:35;;;;;;;4.60;3.05;;;0.80;99.90;;;;;;4824183;28;20409;-79
2021/01/15 10:48:03;;;;;;;3.53;3.23;;;0.80;99.90;;;;;;4845560;28;20409;-79
2021/01/15 10:50:30;;;;;;;3.45;3.05;;;0.80;99.90;;;;;;4867734;28;20455;-82
2021/01/15 10:52:55;;;;;;;3.40;3.10;;;0.70;99.90;;;;;;4878410;28;20433;-78
2021/01/15 10:55:21;;;;;;;3.90;3.50;;;0.60;99.90;;;;;;4842897;28;20467;-77
2021/01/15 10:57:47;;;;;;;3.40;2.97;;;0.60;99.90;;;;;;4842284;28;20849;-81
2021/01/15 11:00:17;;;;;;;4.00;3.40;;;0.60;99.90;;;;;;4842021;28;20423;-79
2021/01/15 11:02:49;;;;;;;3.63;3.22;;;0.50;99.90;;;;;;4842441;29;20438;-78
2021/01/15 11:05:15;;;;;;;3.80;3.40;;;0.50;99.90;;;;;;4935496;28;20837;-77
2021/01/15 11:07:44;;;;;;;3.60;3.30;;;0.70;99.90;;;;;;4939702;28;20422;-87
2021/01/15 11:10:13;;;;;;;3.80;3.40;;;0.80;99.90;;;;;;4942287;28;20484;-82
2021/01/15 11:12:40;;;;;;;5.13;3.90;;;1.00;99.90;;;;;;4857924;28;20425;-77
2021/01/15 11:15:06;;;;;;;3.75;3.40;;;1.10;99.90;;;;;;4849758;29;20407;-77
2021/01/15 11:17:32;;;;;;;4.20;3.75;;;1.30;99.90;;;;;;4846785;28;20407;-77
2021/01/15 11:19:57;;;;;;;4.50;3.65;;;1.60;99.90;;;;;;4870622;28;20432;-76
2021/01/15 11:22:23;;;;;;;3.67;3.27;;;1.80;99.90;;;;;;4851139;29;20416;-76
2021/01/15 11:24:49;;;;;;;3.50;3.20;;;1.60;99.90;;;;;;4854438;29;20428;-77
2021/01/15 11:27:21;;;;;;;5.53;3.67;;;1.50;99.90;;;;;;4838537;28;20424;-76
2021/01/15 11:29:48;;;;;;;6.60;3.75;;;1.50;99.90;;;;;;4906735;28;20500;-77
2021/01/15 11:32:17;;;;;;;3.50;3.20;;;1.50;99.90;;;;;;4904716;29;20434;-76
2021/01/15 11:34:44;;;;;;;3.73;3.33;;;1.60;99.90;;;;;;4944077;28;21103;-76
2021/01/15 11:37:10;;;;;;;4.00;3.50;;;1.50;99.90;;;;;;4928691;28;20419;-77
2021/01/15 11:39:35;;;;;;;4.10;3.53;;;1.60;99.90;;;;;;4938783;28;20831;-76
2021/01/15 11:42:01;;;;;;;4.17;3.77;;;1.70;99.90;;;;;;4912206;28;20454;-75
2021/01/15 11:44:27;;;;;;;4.53;3.20;;;1.70;99.90;;;;;;4939289;28;20457;-77
2021/01/15 11:46:52;;;;;;;3.20;2.90;;;1.70;99.90;;;;;;4874880;28;20496;-76
2021/01/15 11:49:18;;;;;;;4.07;3.50;;;1.60;99.90;;;;;;4841720;29;20911;-77
2021/01/15 11:51:43;;;;;;;3.28;2.97;;;1.40;99.90;;;;;;4852708;28;20442;-83
2021/01/15 11:54:12;;;;;;;3.97;3.30;;;1.30;99.90;;;;;;4841089;29;20409;-77
2021/01/15 11:56:39;;;;;;;3.42;3.05;;;1.20;99.90;;;;;;4849976;29;20764;-77
2021/01/15 11:59:05;;;;;;;3.95;3.50;;;1.10;99.90;;;;;;4880133;28;21005;-77
2021/01/15 12:01:31;;;;;;;4.43;3.50;;;1.10;99.90;;;;;;4841686;29;20531;-81
2021/01/15 12:03:56;;;;;;;3.33;2.97;;;1.10;99.90;;;;;;4878443;28;20486;-77
2021/01/15 12:06:22;;;;;;;3.83;2.97;;;1.00;99.90;;;;;;4902591;29;20424;-79
2021/01/15 12:08:48;;;;;;;4.70;3.50;;;1.00;99.90;;;;;;4903928;28;20415;-78
2021/01/15 12:11:13;;;;;;;3.40;3.08;;;1.10;99.90;;;;;;4825091;28;20515;-77
2021/01/15 12:13:39;;;;;;;4.10;3.70;;;1.10;99.90;;;;;;4845940;29;20788;-77
2021/01/15 12:16:05;;;;;;;3.88;3.30;;;1.10;99.90;;;;;;4848975;29;20486;-86
2021/01/15 12:18:31;;;;;;;4.80;3.25;;;1.10;99.90;;;;;;4933099;29;20394;-85
2021/01/15 12:20:56;;;;;;;4.00;3.20;;;1.00;99.90;;;;;;4851713;28;20407;-82
2021/01/15 12:23:23;;;;;;;3.83;3.00;;;1.10;99.90;;;;;;4817747;28;20774;-84
2021/01/15 12:25:48;;;;;;;3.13;2.80;;;0.70;99.90;;;;;;4834718;28;20405;-80
2021/01/15 12:28:15;;;;;;;3.63;2.90;;;0.70;99.90;;;;;;4854873;28;20403;-82
2021/01/15 12:30:41;;;;;;;3.75;2.97;;;0.70;99.90;;;;;;4822584;29;20415;-84
2021/01/15 12:33:07;;;;;;;3.33;3.03;;;0.70;99.90;;;;;;4839618;28;20769;-76
2021/01/15 12:35:33;;;;;;;3.05;2.85;;;0.70;99.90;;;;;;4809658;29;20460;-78
2021/01/15 12:38:06;;;;;;;3.58;2.80;;;0.70;99.90;;;;;;4903601;28;20498;-79
2021/01/15 12:40:32;;;;;;;3.40;3.10;;;0.70;99.90;;;;;;4842302;28;20517;-81
2021/01/15 12:42:57;;;;;;;3.17;2.88;;;0.70;99.90;;;;;;4808854;28;20485;-80
2021/01/15 12:45:23;;;;;;;3.10;2.80;;;0.70;99.90;;;;;;4837783;28;20411;-77
2021/01/15 12:47:49;;;;;;;3.40;3.10;;;0.70;99.90;;;;;;4839685;28;20404;-78
2021/01/15 12:50:14;;;;;;;3.60;2.90;;;0.70;99.90;;;;;;4839860;29;20401;-85
2021/01/15 12:52:40;;;;;;;3.93;3.10;;;0.80;99.90;;;;;;4850096;29;20500;-77
2021/01/15 12:55:06;;;;;;;3.30;3.00;;;0.80;99.90;;;;;;4862863;29;20956;-78
2021/01/15 12:57:32;;;;;;;4.40;3.10;;;0.90;99.90;;;;;;4836753;29;20406;-79
2021/01/15 12:59:58;;;;;;;3.22;2.90;;;0.80;99.90;;;;;;4842664;28;20427;-81
2021/01/15 13:02:24;;;;;;;2.78;2.58;;;0.70;99.90;;;;;;4838424;28;20405;-86
2021/01/15 13:04:49;;;;;;;3.87;2.77;;;0.70;99.90;;;;;;4869654;29;20492;-81